sensor_id;sensor_type;location;lat;lon;timestamp;temperature;humidity
5061;DHT22;2549;52.128;21.068;2023-06-14T00:00:44;17.40;99.90
5061;DHT22;2549;52.128;21.068;2023-06-14T00:03:11;17.40;99.90
5061;DHT22;2549;52.128;21.068;2023-06-14T00:05:39;17.40;99.90
5061;DHT22;2549;52.128;21.068;2023-06-14T00:08:10;17.40;99.90
5061;DHT22;2549;52.128;21.068;2023-06-14T00:10:37;17.30;99.90
5061;DHT22;2549;52.128;21.068;2023-06-14T00:13:05;17.30;99.90
5061;DHT22;2549;52.128;21.068;2023-06-14T00:15:34;17.40;99.90
5061;DHT22;2549;52.128;21.068;2023-06-14T00:18:02;17.30;99.90
5061;DHT22;2549;52.128;21.068;2023-06-14T00:20:30;17.30;99.90
5061;DHT22;2549;52.128;21.068;2023-06-14T00:23:00;17.30;99.90
5061;DHT22;2549;52.128;21.068;2023-06-14T00:25:27;17.30;99.90
5061;DHT22;2549;52.128;21.068;2023-06-14T00:27:57;17.30;99.90
5061;DHT22;2549;52.128;21.068;2023-06-14T00:30:24;17.30;99.90
5061;DHT22;2549;52.128;21.068;2023-06-14T00:32:52;17.30;99.90
5061;DHT22;2549;52.128;21.068;2023-06-14T00:35:19;17.30;99.90
5061;DHT22;2549;52.128;21.068;2023-06-14T00:37:46;17.30;99.90
5061;DHT22;2549;52.128;21.068;2023-06-14T00:40:13;17.20;99.90
5061;DHT22;2549;52.128;21.068;2023-06-14T00:42:40;17.20;99.90
5061;DHT22;2549;52.128;21.068;2023-06-14T00:45:08;17.10;99.90
5061;DHT22;2549;52.128;21.068;2023-06-14T00:47:36;17.10;99.90
5061;DHT22;2549;52.128;21.068;2023-06-14T00:50:07;17.20;99.90
5061;DHT22;2549;52.128;21.068;2023-06-14T00:52:34;17.20;99.90
5061;DHT22;2549;52.128;21.068;2023-06-14T00:55:02;17.10;99.90
5061;DHT22;2549;52.128;21.068;2023-06-14T00:57:29;17.10;99.90
5061;DHT22;2549;52.128;21.068;2023-06-14T00:59:56;17.10;99.90
5061;DHT22;2549;52.128;21.068;2023-06-14T01:02:23;17.10;99.90
5061;DHT22;2549;52.128;21.068;2023-06-14T01:04:51;17.00;99.90
5061;DHT22;2549;52.128;21.068;2023-06-14T01:07:39;17.00;99.90
5061;DHT22;2549;52.128;21.068;2023-06-14T01:15:48;17.00;99.90
5061;DHT22;2549;52.128;21.068;2023-06-14T01:18:15;17.00;99.90
5061;DHT22;2549;52.128;21.068;2023-06-14T01:20:46;17.00;99.90
5061;DHT22;2549;52.128;21.068;2023-06-14T01:23:18;17.00;99.90
5061;DHT22;2549;52.128;21.068;2023-06-14T01:25:46;17.10;99.90
5061;DHT22;2549;52.128;21.068;2023-06-14T01:28:15;17.10;99.90
5061;DHT22;2549;52.128;21.068;2023-06-14T01:30:45;17.10;99.90
5061;DHT22;2549;52.128;21.068;2023-06-14T01:33:20;17.10;99.90
5061;DHT22;2549;52.128;21.068;2023-06-14T01:35:52;17.10;99.90
5061;DHT22;2549;52.128;21.068;2023-06-14T01:38:25;17.20;99.90
5061;DHT22;2549;52.128;21.068;2023-06-14T01:40:54;17.20;99.90
5061;DHT22;2549;52.128;21.068;2023-06-14T01:43:22;17.20;99.90
5061;DHT22;2549;52.128;21.068;2023-06-14T01:45:51;17.20;99.90
5061;DHT22;2549;52.128;21.068;2023-06-14T01:48:20;17.20;99.90
5061;DHT22;2549;52.128;21.068;2023-06-14T01:50:48;17.20;99.90
5061;DHT22;2549;52.128;21.068;2023-06-14T01:53:16;17.20;99.90
5061;DHT22;2549;52.128;21.068;2023-06-14T01:55:43;17.20;99.90
5061;DHT22;2549;52.128;21.068;2023-06-14T01:58:11;17.20;99.90
5061;DHT22;2549;52.128;21.068;2023-06-14T02:00:38;17.20;99.90
5061;DHT22;2549;52.128;21.068;2023-06-14T02:03:04;17.20;99.90
5061;DHT22;2549;52.128;21.068;2023-06-14T02:05:31;17.20;99.90
5061;DHT22;2549;52.128;21.068;2023-06-14T02:07:58;17.20;99.90
5061;DHT22;2549;52.128;21.068;2023-06-14T02:10:25;17.20;99.90
5061;DHT22;2549;52.128;21.068;2023-06-14T02:12:52;17.20;99.90
5061;DHT22;2549;52.128;21.068;2023-06-14T02:15:19;17.20;99.90
5061;DHT22;2549;52.128;21.068;2023-06-14T02:17:46;17.20;99.90
5061;DHT22;2549;52.128;21.068;2023-06-14T02:20:16;17.20;99.90
5061;DHT22;2549;52.128;21.068;2023-06-14T02:22:45;17.20;99.90
5061;DHT22;2549;52.128;21.068;2023-06-14T02:25:12;17.20;99.90
5061;DHT22;2549;52.128;21.068;2023-06-14T02:27:39;17.10;99.90
5061;DHT22;2549;52.128;21.068;2023-06-14T02:30:07;17.10;99.90
5061;DHT22;2549;52.128;21.068;2023-06-14T02:32:33;17.10;99.90
5061;DHT22;2549;52.128;21.068;2023-06-14T02:35:03;17.10;99.90
5061;DHT22;2549;52.128;21.068;2023-06-14T02:37:30;17.10;99.90
5061;DHT22;2549;52.128;21.068;2023-06-14T02:39:58;17.00;99.90
5061;DHT22;2549;52.128;21.068;2023-06-14T02:42:25;17.10;99.90
5061;DHT22;2549;52.128;21.068;2023-06-14T02:44:52;17.10;99.90
5061;DHT22;2549;52.128;21.068;2023-06-14T02:47:19;17.10;99.90
5061;DHT22;2549;52.128;21.068;2023-06-14T02:49:46;17.10;99.90
5061;DHT22;2549;52.128;21.068;2023-06-14T02:52:13;17.10;99.90
5061;DHT22;2549;52.128;21.068;2023-06-14T02:54:40;17.10;99.90
5061;DHT22;2549;52.128;21.068;2023-06-14T02:57:07;17.00;99.90
5061;DHT22;2549;52.128;21.068;2023-06-14T02:59:35;17.00;99.90
5061;DHT22;2549;52.128;21.068;2023-06-14T03:02:02;17.00;99.90
5061;DHT22;2549;52.128;21.068;2023-06-14T03:04:29;17.10;99.90
5061;DHT22;2549;52.128;21.068;2023-06-14T03:06:59;17.10;99.90
5061;DHT22;2549;52.128;21.068;2023-06-14T03:09:29;17.10;99.90
5061;DHT22;2549;52.128;21.068;2023-06-14T03:11:56;17.00;99.90
5061;DHT22;2549;52.128;21.068;2023-06-14T03:14:23;17.00;99.90
5061;DHT22;2549;52.128;21.068;2023-06-14T03:16:49;17.00;99.90
5061;DHT22;2549;52.128;21.068;2023-06-14T03:19:17;16.90;99.90
5061;DHT22;2549;52.128;21.068;2023-06-14T03:21:44;16.90;99.90
5061;DHT22;2549;52.128;21.068;2023-06-14T03:24:11;17.00;99.90
5061;DHT22;2549;52.128;21.068;2023-06-14T03:26:38;17.00;99.90
5061;DHT22;2549;52.128;21.068;2023-06-14T03:29:05;17.00;99.90
5061;DHT22;2549;52.128;21.068;2023-06-14T03:31:33;17.00;99.90
5061;DHT22;2549;52.128;21.068;2023-06-14T03:34:01;17.00;99.90
5061;DHT22;2549;52.128;21.068;2023-06-14T03:36:28;17.00;99.90
5061;DHT22;2549;52.128;21.068;2023-06-14T03:38:55;17.10;99.90
5061;DHT22;2549;52.128;21.068;2023-06-14T03:41:22;17.10;99.90
5061;DHT22;2549;52.128;21.068;2023-06-14T03:43:49;17.10;99.90
5061;DHT22;2549;52.128;21.068;2023-06-14T03:46:16;17.10;99.90
5061;DHT22;2549;52.128;21.068;2023-06-14T03:48:43;17.20;99.90
5061;DHT22;2549;52.128;21.068;2023-06-14T03:51:10;17.20;99.90
5061;DHT22;2549;52.128;21.068;2023-06-14T03:53:37;17.20;99.90
5061;DHT22;2549;52.128;21.068;2023-06-14T03:56:19;17.20;99.90
5061;DHT22;2549;52.128;21.068;2023-06-14T03:58:46;17.20;99.90
5061;DHT22;2549;52.128;21.068;2023-06-14T04:01:13;17.20;99.90
5061;DHT22;2549;52.128;21.068;2023-06-14T04:03:40;17.20;99.90
5061;DHT22;2549;52.128;21.068;2023-06-14T04:06:07;17.30;99.90
5061;DHT22;2549;52.128;21.068;2023-06-14T04:08:34;17.30;99.90
5061;DHT22;2549;52.128;21.068;2023-06-14T04:11:02;17.30;99.90
5061;DHT22;2549;52.128;21.068;2023-06-14T04:13:29;17.40;99.90
5061;DHT22;2549;52.128;21.068;2023-06-14T04:15:56;17.40;99.90
5061;DHT22;2549;52.128;21.068;2023-06-14T04:18:24;17.40;99.90
5061;DHT22;2549;52.128;21.068;2023-06-14T04:20:51;17.40;99.90
5061;DHT22;2549;52.128;21.068;2023-06-14T04:23:18;17.50;99.90
5061;DHT22;2549;52.128;21.068;2023-06-14T04:25:45;17.50;99.90
5061;DHT22;2549;52.128;21.068;2023-06-14T04:28:12;17.50;99.90
5061;DHT22;2549;52.128;21.068;2023-06-14T04:30:42;17.50;99.90
5061;DHT22;2549;52.128;21.068;2023-06-14T04:33:10;17.40;99.90
5061;DHT22;2549;52.128;21.068;2023-06-14T04:35:37;17.50;99.90
5061;DHT22;2549;52.128;21.068;2023-06-14T04:38:04;17.50;99.90
5061;DHT22;2549;52.128;21.068;2023-06-14T04:40:32;17.50;99.90
5061;DHT22;2549;52.128;21.068;2023-06-14T04:43:00;17.60;99.90
5061;DHT22;2549;52.128;21.068;2023-06-14T04:45:27;17.60;99.90
5061;DHT22;2549;52.128;21.068;2023-06-14T04:48:00;17.60;99.90
5061;DHT22;2549;52.128;21.068;2023-06-14T04:50:28;17.70;99.90
5061;DHT22;2549;52.128;21.068;2023-06-14T04:52:56;17.70;99.90
5061;DHT22;2549;52.128;21.068;2023-06-14T04:55:23;17.70;99.90
5061;DHT22;2549;52.128;21.068;2023-06-14T04:57:51;17.70;99.90
5061;DHT22;2549;52.128;21.068;2023-06-14T05:00:20;17.70;99.90
5061;DHT22;2549;52.128;21.068;2023-06-14T05:02:47;17.70;99.90
5061;DHT22;2549;52.128;21.068;2023-06-14T05:05:15;17.70;99.90
5061;DHT22;2549;52.128;21.068;2023-06-14T05:07:43;17.80;99.90
5061;DHT22;2549;52.128;21.068;2023-06-14T05:10:10;17.70;99.90
5061;DHT22;2549;52.128;21.068;2023-06-14T05:12:37;17.70;99.90
5061;DHT22;2549;52.128;21.068;2023-06-14T05:15:07;17.70;99.90
5061;DHT22;2549;52.128;21.068;2023-06-14T05:17:35;17.70;99.90
5061;DHT22;2549;52.128;21.068;2023-06-14T05:20:05;17.70;99.90
5061;DHT22;2549;52.128;21.068;2023-06-14T05:22:32;17.70;99.90
5061;DHT22;2549;52.128;21.068;2023-06-14T05:24:59;17.80;99.90
5061;DHT22;2549;52.128;21.068;2023-06-14T05:27:26;17.80;99.90
5061;DHT22;2549;52.128;21.068;2023-06-14T05:29:52;17.80;99.90
5061;DHT22;2549;52.128;21.068;2023-06-14T05:32:22;17.80;99.90
5061;DHT22;2549;52.128;21.068;2023-06-14T05:34:49;17.70;99.90
5061;DHT22;2549;52.128;21.068;2023-06-14T05:37:16;17.70;99.90
5061;DHT22;2549;52.128;21.068;2023-06-14T05:39:44;17.70;99.90
5061;DHT22;2549;52.128;21.068;2023-06-14T05:42:10;17.70;99.90
5061;DHT22;2549;52.128;21.068;2023-06-14T05:44:37;17.70;99.90
5061;DHT22;2549;52.128;21.068;2023-06-14T05:47:05;17.70;99.90
5061;DHT22;2549;52.128;21.068;2023-06-14T05:49:32;17.70;99.90
5061;DHT22;2549;52.128;21.068;2023-06-14T05:51:59;17.80;99.90
5061;DHT22;2549;52.128;21.068;2023-06-14T05:54:26;17.80;99.90
5061;DHT22;2549;52.128;21.068;2023-06-14T05:56:52;17.90;99.90
5061;DHT22;2549;52.128;21.068;2023-06-14T05:59:19;17.90;99.90
5061;DHT22;2549;52.128;21.068;2023-06-14T06:01:46;17.90;99.90
5061;DHT22;2549;52.128;21.068;2023-06-14T06:04:13;17.90;99.90
5061;DHT22;2549;52.128;21.068;2023-06-14T06:06:40;17.90;99.90
5061;DHT22;2549;52.128;21.068;2023-06-14T06:09:07;17.90;99.90
5061;DHT22;2549;52.128;21.068;2023-06-14T06:11:34;18.00;99.90
5061;DHT22;2549;52.128;21.068;2023-06-14T06:14:18;18.10;99.90
5061;DHT22;2549;52.128;21.068;2023-06-14T06:16:45;18.20;99.90
5061;DHT22;2549;52.128;21.068;2023-06-14T06:19:12;18.20;99.90
5061;DHT22;2549;52.128;21.068;2023-06-14T06:21:39;18.30;99.90
5061;DHT22;2549;52.128;21.068;2023-06-14T06:24:06;18.30;99.90
5061;DHT22;2549;52.128;21.068;2023-06-14T06:26:33;18.30;99.90
5061;DHT22;2549;52.128;21.068;2023-06-14T06:29:00;18.30;99.90
5061;DHT22;2549;52.128;21.068;2023-06-14T06:31:27;18.30;99.90
5061;DHT22;2549;52.128;21.068;2023-06-14T06:33:55;18.40;99.90
5061;DHT22;2549;52.128;21.068;2023-06-14T06:36:22;18.40;99.90
5061;DHT22;2549;52.128;21.068;2023-06-14T06:38:49;18.40;99.90
5061;DHT22;2549;52.128;21.068;2023-06-14T06:41:15;18.40;99.90
5061;DHT22;2549;52.128;21.068;2023-06-14T06:43:42;18.50;99.90
5061;DHT22;2549;52.128;21.068;2023-06-14T06:46:09;18.50;99.90
5061;DHT22;2549;52.128;21.068;2023-06-14T06:48:36;18.50;99.90
5061;DHT22;2549;52.128;21.068;2023-06-14T06:51:03;18.60;99.90
5061;DHT22;2549;52.128;21.068;2023-06-14T06:53:29;18.70;99.90
5061;DHT22;2549;52.128;21.068;2023-06-14T06:56:07;18.70;99.90
5061;DHT22;2549;52.128;21.068;2023-06-14T06:58:34;18.80;99.90
5061;DHT22;2549;52.128;21.068;2023-06-14T07:01:01;18.80;99.90
5061;DHT22;2549;52.128;21.068;2023-06-14T07:03:28;18.80;99.90
5061;DHT22;2549;52.128;21.068;2023-06-14T07:05:54;18.70;99.90
5061;DHT22;2549;52.128;21.068;2023-06-14T07:08:21;18.70;99.90
5061;DHT22;2549;52.128;21.068;2023-06-14T07:10:48;18.70;99.90
5061;DHT22;2549;52.128;21.068;2023-06-14T07:13:15;18.80;99.90
5061;DHT22;2549;52.128;21.068;2023-06-14T07:15:42;18.80;99.90
5061;DHT22;2549;52.128;21.068;2023-06-14T07:18:09;18.80;99.90
5061;DHT22;2549;52.128;21.068;2023-06-14T07:20:36;18.90;99.90
5061;DHT22;2549;52.128;21.068;2023-06-14T07:23:04;19.00;99.90
5061;DHT22;2549;52.128;21.068;2023-06-14T07:25:32;19.00;99.90
5061;DHT22;2549;52.128;21.068;2023-06-14T07:27:59;19.10;99.90
5061;DHT22;2549;52.128;21.068;2023-06-14T07:30:26;19.10;99.90
5061;DHT22;2549;52.128;21.068;2023-06-14T07:32:53;19.10;99.90
5061;DHT22;2549;52.128;21.068;2023-06-14T07:35:21;19.10;99.90
5061;DHT22;2549;52.128;21.068;2023-06-14T07:37:48;19.00;99.90
5061;DHT22;2549;52.128;21.068;2023-06-14T07:40:16;18.90;99.90
5061;DHT22;2549;52.128;21.068;2023-06-14T07:42:43;18.90;99.90
5061;DHT22;2549;52.128;21.068;2023-06-14T07:45:11;19.00;99.90
5061;DHT22;2549;52.128;21.068;2023-06-14T07:47:39;19.00;99.90
5061;DHT22;2549;52.128;21.068;2023-06-14T07:50:06;19.10;99.90
5061;DHT22;2549;52.128;21.068;2023-06-14T07:52:33;19.10;99.90
5061;DHT22;2549;52.128;21.068;2023-06-14T07:55:00;19.10;99.90
5061;DHT22;2549;52.128;21.068;2023-06-14T07:57:27;19.20;99.90
5061;DHT22;2549;52.128;21.068;2023-06-14T07:59:53;19.20;99.90
5061;DHT22;2549;52.128;21.068;2023-06-14T08:02:20;19.20;99.90
5061;DHT22;2549;52.128;21.068;2023-06-14T08:04:47;19.20;99.90
5061;DHT22;2549;52.128;21.068;2023-06-14T08:07:15;19.20;99.90
5061;DHT22;2549;52.128;21.068;2023-06-14T08:09:42;19.20;99.90
5061;DHT22;2549;52.128;21.068;2023-06-14T08:12:09;19.20;99.90
5061;DHT22;2549;52.128;21.068;2023-06-14T08:14:39;19.10;99.90
5061;DHT22;2549;52.128;21.068;2023-06-14T08:17:06;19.10;99.90
5061;DHT22;2549;52.128;21.068;2023-06-14T08:19:33;19.20;99.90
5061;DHT22;2549;52.128;21.068;2023-06-14T08:22:00;19.30;99.90
5061;DHT22;2549;52.128;21.068;2023-06-14T08:24:27;19.40;99.90
5061;DHT22;2549;52.128;21.068;2023-06-14T08:26:54;19.50;99.90
5061;DHT22;2549;52.128;21.068;2023-06-14T08:29:22;19.60;99.90
5061;DHT22;2549;52.128;21.068;2023-06-14T08:31:49;19.60;99.90
5061;DHT22;2549;52.128;21.068;2023-06-14T08:34:16;19.70;99.90
5061;DHT22;2549;52.128;21.068;2023-06-14T08:36:43;19.70;99.90
5061;DHT22;2549;52.128;21.068;2023-06-14T08:39:10;19.80;99.90
5061;DHT22;2549;52.128;21.068;2023-06-14T08:41:37;19.90;99.90
5061;DHT22;2549;52.128;21.068;2023-06-14T08:44:04;19.90;99.90
5061;DHT22;2549;52.128;21.068;2023-06-14T08:46:33;20.00;99.90
5061;DHT22;2549;52.128;21.068;2023-06-14T08:49:01;20.10;99.90
5061;DHT22;2549;52.128;21.068;2023-06-14T08:51:31;20.20;99.90
5061;DHT22;2549;52.128;21.068;2023-06-14T08:54:03;20.30;99.90
5061;DHT22;2549;52.128;21.068;2023-06-14T08:56:33;20.20;99.90
5061;DHT22;2549;52.128;21.068;2023-06-14T08:59:03;20.20;99.60
5061;DHT22;2549;52.128;21.068;2023-06-14T09:01:33;20.20;99.80
5061;DHT22;2549;52.128;21.068;2023-06-14T09:04:04;20.30;99.90
5061;DHT22;2549;52.128;21.068;2023-06-14T09:06:34;20.40;99.90
5061;DHT22;2549;52.128;21.068;2023-06-14T09:09:03;20.40;99.90
5061;DHT22;2549;52.128;21.068;2023-06-14T09:11:31;20.50;99.60
5061;DHT22;2549;52.128;21.068;2023-06-14T09:13:58;20.50;99.20
5061;DHT22;2549;52.128;21.068;2023-06-14T09:16:25;20.50;99.70
5061;DHT22;2549;52.128;21.068;2023-06-14T09:18:53;20.60;99.80
5061;DHT22;2549;52.128;21.068;2023-06-14T09:21:20;20.70;99.90
5061;DHT22;2549;52.128;21.068;2023-06-14T09:23:48;20.70;99.90
5061;DHT22;2549;52.128;21.068;2023-06-14T09:26:17;20.80;99.90
5061;DHT22;2549;52.128;21.068;2023-06-14T09:28:48;20.80;99.90
5061;DHT22;2549;52.128;21.068;2023-06-14T09:31:17;20.90;99.90
5061;DHT22;2549;52.128;21.068;2023-06-14T09:33:48;20.90;99.60
5061;DHT22;2549;52.128;21.068;2023-06-14T09:36:25;21.00;99.90
5061;DHT22;2549;52.128;21.068;2023-06-14T09:41:39;21.00;99.40
5061;DHT22;2549;52.128;21.068;2023-06-14T09:44:08;21.10;99.40
5061;DHT22;2549;52.128;21.068;2023-06-14T09:46:43;21.10;99.60
5061;DHT22;2549;52.128;21.068;2023-06-14T09:49:10;21.10;99.50
5061;DHT22;2549;52.128;21.068;2023-06-14T09:51:45;21.20;99.40
5061;DHT22;2549;52.128;21.068;2023-06-14T09:54:16;21.20;99.40
5061;DHT22;2549;52.128;21.068;2023-06-14T09:56:47;21.30;99.80
5061;DHT22;2549;52.128;21.068;2023-06-14T09:59:19;21.30;98.70
5061;DHT22;2549;52.128;21.068;2023-06-14T10:01:48;21.30;99.30
5061;DHT22;2549;52.128;21.068;2023-06-14T10:04:18;21.40;99.40
5061;DHT22;2549;52.128;21.068;2023-06-14T10:06:47;21.40;98.60
5061;DHT22;2549;52.128;21.068;2023-06-14T10:09:16;21.40;98.20
5061;DHT22;2549;52.128;21.068;2023-06-14T10:11:43;21.50;97.60
5061;DHT22;2549;52.128;21.068;2023-06-14T10:14:12;21.60;97.00
5061;DHT22;2549;52.128;21.068;2023-06-14T10:17:01;21.60;96.60
5061;DHT22;2549;52.128;21.068;2023-06-14T10:19:34;21.70;96.60
5061;DHT22;2549;52.128;21.068;2023-06-14T10:22:14;21.70;96.30
5061;DHT22;2549;52.128;21.068;2023-06-14T10:24:44;21.70;96.50
5061;DHT22;2549;52.128;21.068;2023-06-14T10:27:15;21.70;95.80
5061;DHT22;2549;52.128;21.068;2023-06-14T10:32:22;21.80;95.40
5061;DHT22;2549;52.128;21.068;2023-06-14T10:35:06;21.70;95.40
5061;DHT22;2549;52.128;21.068;2023-06-14T10:37:36;21.70;94.90
5061;DHT22;2549;52.128;21.068;2023-06-14T10:40:03;21.80;94.40
5061;DHT22;2549;52.128;21.068;2023-06-14T10:42:32;21.70;94.20
5061;DHT22;2549;52.128;21.068;2023-06-14T10:45:00;21.80;94.40
5061;DHT22;2549;52.128;21.068;2023-06-14T10:47:32;21.80;94.10
5061;DHT22;2549;52.128;21.068;2023-06-14T10:50:05;21.80;94.10
5061;DHT22;2549;52.128;21.068;2023-06-14T10:52:35;21.80;94.30
5061;DHT22;2549;52.128;21.068;2023-06-14T10:55:09;21.90;94.30
5061;DHT22;2549;52.128;21.068;2023-06-14T10:57:43;21.80;93.10
5061;DHT22;2549;52.128;21.068;2023-06-14T11:00:19;21.80;93.30
5061;DHT22;2549;52.128;21.068;2023-06-14T11:05:54;21.90;93.50
5061;DHT22;2549;52.128;21.068;2023-06-14T11:11:32;22.00;93.10
5061;DHT22;2549;52.128;21.068;2023-06-14T11:14:00;22.00;93.40
5061;DHT22;2549;52.128;21.068;2023-06-14T11:16:29;21.90;93.60
5061;DHT22;2549;52.128;21.068;2023-06-14T11:18:56;21.80;93.90
5061;DHT22;2549;52.128;21.068;2023-06-14T11:21:24;21.70;94.20
5061;DHT22;2549;52.128;21.068;2023-06-14T11:23:52;21.80;94.40
5061;DHT22;2549;52.128;21.068;2023-06-14T11:26:31;21.80;94.50
5061;DHT22;2549;52.128;21.068;2023-06-14T11:29:00;22.00;94.40
5061;DHT22;2549;52.128;21.068;2023-06-14T11:31:28;21.90;94.00
5061;DHT22;2549;52.128;21.068;2023-06-14T11:33:57;22.00;94.60
5061;DHT22;2549;52.128;21.068;2023-06-14T11:36:31;22.00;94.40
5061;DHT22;2549;52.128;21.068;2023-06-14T11:39:05;22.00;94.80
5061;DHT22;2549;52.128;21.068;2023-06-14T11:41:37;22.00;95.20
5061;DHT22;2549;52.128;21.068;2023-06-14T11:44:06;22.00;94.60
5061;DHT22;2549;52.128;21.068;2023-06-14T11:46:34;21.90;93.90
5061;DHT22;2549;52.128;21.068;2023-06-14T11:49:02;21.90;94.00
5061;DHT22;2549;52.128;21.068;2023-06-14T11:51:32;21.90;93.80
5061;DHT22;2549;52.128;21.068;2023-06-14T11:54:01;21.90;92.70
5061;DHT22;2549;52.128;21.068;2023-06-14T11:56:33;21.80;92.20
5061;DHT22;2549;52.128;21.068;2023-06-14T11:59:02;21.80;92.20
5061;DHT22;2549;52.128;21.068;2023-06-14T12:01:30;21.80;91.30
5061;DHT22;2549;52.128;21.068;2023-06-14T12:03:59;21.80;90.70
5061;DHT22;2549;52.128;21.068;2023-06-14T12:06:28;21.60;91.00
5061;DHT22;2549;52.128;21.068;2023-06-14T12:08:56;21.70;91.50
5061;DHT22;2549;52.128;21.068;2023-06-14T12:11:24;21.70;91.70
5061;DHT22;2549;52.128;21.068;2023-06-14T12:13:51;21.80;91.80
5061;DHT22;2549;52.128;21.068;2023-06-14T12:16:18;21.80;91.80
5061;DHT22;2549;52.128;21.068;2023-06-14T12:18:45;21.90;91.90
5061;DHT22;2549;52.128;21.068;2023-06-14T12:21:12;21.90;91.80
5061;DHT22;2549;52.128;21.068;2023-06-14T12:23:41;21.90;91.60
5061;DHT22;2549;52.128;21.068;2023-06-14T12:26:09;22.00;91.90
5061;DHT22;2549;52.128;21.068;2023-06-14T12:28:37;22.10;91.90
5061;DHT22;2549;52.128;21.068;2023-06-14T12:31:06;22.20;91.30
5061;DHT22;2549;52.128;21.068;2023-06-14T12:33:34;22.20;91.00
5061;DHT22;2549;52.128;21.068;2023-06-14T12:36:04;22.30;91.20
5061;DHT22;2549;52.128;21.068;2023-06-14T12:38:33;22.30;90.20
5061;DHT22;2549;52.128;21.068;2023-06-14T12:41:04;22.30;88.90
5061;DHT22;2549;52.128;21.068;2023-06-14T12:43:33;22.20;88.50
5061;DHT22;2549;52.128;21.068;2023-06-14T12:46:00;22.20;87.80
5061;DHT22;2549;52.128;21.068;2023-06-14T12:48:27;22.20;87.40
5061;DHT22;2549;52.128;21.068;2023-06-14T12:50:57;22.30;87.60
5061;DHT22;2549;52.128;21.068;2023-06-14T12:53:24;22.40;87.20
5061;DHT22;2549;52.128;21.068;2023-06-14T12:55:50;22.40;87.30
5061;DHT22;2549;52.128;21.068;2023-06-14T12:58:20;22.50;87.90
5061;DHT22;2549;52.128;21.068;2023-06-14T13:00:47;22.60;88.00
5061;DHT22;2549;52.128;21.068;2023-06-14T13:03:14;22.70;87.70
5061;DHT22;2549;52.128;21.068;2023-06-14T13:05:41;22.70;86.10
5061;DHT22;2549;52.128;21.068;2023-06-14T13:08:09;22.60;86.30
5061;DHT22;2549;52.128;21.068;2023-06-14T13:10:36;22.50;86.90
5061;DHT22;2549;52.128;21.068;2023-06-14T13:13:03;22.50;86.60
5061;DHT22;2549;52.128;21.068;2023-06-14T13:15:30;22.50;86.10
5061;DHT22;2549;52.128;21.068;2023-06-14T13:17:57;22.50;85.00
5061;DHT22;2549;52.128;21.068;2023-06-14T13:20:24;22.40;83.90
5061;DHT22;2549;52.128;21.068;2023-06-14T13:22:51;22.30;83.30
5061;DHT22;2549;52.128;21.068;2023-06-14T13:25:18;22.40;84.80
5061;DHT22;2549;52.128;21.068;2023-06-14T13:27:45;22.40;85.30
5061;DHT22;2549;52.128;21.068;2023-06-14T13:30:12;22.40;85.30
5061;DHT22;2549;52.128;21.068;2023-06-14T13:32:40;22.40;84.80
5061;DHT22;2549;52.128;21.068;2023-06-14T13:35:07;22.50;85.00
5061;DHT22;2549;52.128;21.068;2023-06-14T13:37:34;22.50;85.00
5061;DHT22;2549;52.128;21.068;2023-06-14T13:40:01;22.50;84.40
5061;DHT22;2549;52.128;21.068;2023-06-14T13:42:28;22.60;85.20
5061;DHT22;2549;52.128;21.068;2023-06-14T13:44:58;22.60;85.10
5061;DHT22;2549;52.128;21.068;2023-06-14T13:47:25;22.60;85.20
5061;DHT22;2549;52.128;21.068;2023-06-14T13:49:52;22.70;85.30
5061;DHT22;2549;52.128;21.068;2023-06-14T13:52:19;22.70;84.80
5061;DHT22;2549;52.128;21.068;2023-06-14T13:54:46;22.70;84.80
5061;DHT22;2549;52.128;21.068;2023-06-14T13:57:15;22.80;84.30
5061;DHT22;2549;52.128;21.068;2023-06-14T13:59:42;22.90;84.20
5061;DHT22;2549;52.128;21.068;2023-06-14T14:02:11;22.90;85.10
5061;DHT22;2549;52.128;21.068;2023-06-14T14:04:39;23.00;84.90
5061;DHT22;2549;52.128;21.068;2023-06-14T14:07:06;23.00;85.40
5061;DHT22;2549;52.128;21.068;2023-06-14T14:09:34;23.10;84.90
5061;DHT22;2549;52.128;21.068;2023-06-14T14:12:01;23.10;82.20
5061;DHT22;2549;52.128;21.068;2023-06-14T14:14:31;23.00;81.30
5061;DHT22;2549;52.128;21.068;2023-06-14T14:16:58;22.90;82.10
5061;DHT22;2549;52.128;21.068;2023-06-14T14:19:26;23.00;82.60
5061;DHT22;2549;52.128;21.068;2023-06-14T14:21:52;23.00;82.00
5061;DHT22;2549;52.128;21.068;2023-06-14T14:24:20;23.10;82.20
5061;DHT22;2549;52.128;21.068;2023-06-14T14:26:47;23.10;81.70
5061;DHT22;2549;52.128;21.068;2023-06-14T14:29:16;23.10;82.00
5061;DHT22;2549;52.128;21.068;2023-06-14T14:31:43;23.20;82.30
5061;DHT22;2549;52.128;21.068;2023-06-14T14:34:11;23.20;82.10
5061;DHT22;2549;52.128;21.068;2023-06-14T14:36:38;23.20;82.60
5061;DHT22;2549;52.128;21.068;2023-06-14T14:39:09;23.20;82.60
5061;DHT22;2549;52.128;21.068;2023-06-14T14:41:36;23.10;82.60
5061;DHT22;2549;52.128;21.068;2023-06-14T14:44:08;23.20;83.50
5061;DHT22;2549;52.128;21.068;2023-06-14T14:46:35;23.30;82.60
5061;DHT22;2549;52.128;21.068;2023-06-14T14:49:02;23.30;83.00
5061;DHT22;2549;52.128;21.068;2023-06-14T14:51:29;23.30;82.80
5061;DHT22;2549;52.128;21.068;2023-06-14T14:53:56;23.30;82.20
5061;DHT22;2549;52.128;21.068;2023-06-14T14:56:23;23.30;81.70
5061;DHT22;2549;52.128;21.068;2023-06-14T14:58:51;23.40;81.10
5061;DHT22;2549;52.128;21.068;2023-06-14T15:01:18;23.40;80.80
5061;DHT22;2549;52.128;21.068;2023-06-14T15:03:45;23.30;80.40
5061;DHT22;2549;52.128;21.068;2023-06-14T15:06:25;23.20;79.60
5061;DHT22;2549;52.128;21.068;2023-06-14T15:08:51;23.00;80.20
5061;DHT22;2549;52.128;21.068;2023-06-14T15:11:18;23.00;81.10
5061;DHT22;2549;52.128;21.068;2023-06-14T15:13:47;23.00;80.90
5061;DHT22;2549;52.128;21.068;2023-06-14T15:16:14;23.10;80.60
5061;DHT22;2549;52.128;21.068;2023-06-14T15:18:41;23.10;80.10
5061;DHT22;2549;52.128;21.068;2023-06-14T15:21:08;23.10;79.60
5061;DHT22;2549;52.128;21.068;2023-06-14T15:23:35;23.20;80.00
5061;DHT22;2549;52.128;21.068;2023-06-14T15:26:02;23.20;78.40
5061;DHT22;2549;52.128;21.068;2023-06-14T15:28:28;23.10;78.90
5061;DHT22;2549;52.128;21.068;2023-06-14T15:30:56;23.00;80.80
5061;DHT22;2549;52.128;21.068;2023-06-14T15:33:23;23.00;81.10
5061;DHT22;2549;52.128;21.068;2023-06-14T15:35:51;23.10;81.50
5061;DHT22;2549;52.128;21.068;2023-06-14T15:38:18;23.10;81.40
5061;DHT22;2549;52.128;21.068;2023-06-14T15:40:45;23.10;82.00
5061;DHT22;2549;52.128;21.068;2023-06-14T15:43:12;23.10;82.90
5061;DHT22;2549;52.128;21.068;2023-06-14T15:45:39;23.20;82.40
5061;DHT22;2549;52.128;21.068;2023-06-14T15:48:06;23.30;82.40
5061;DHT22;2549;52.128;21.068;2023-06-14T15:50:34;23.30;83.00
5061;DHT22;2549;52.128;21.068;2023-06-14T15:53:03;23.30;83.10
5061;DHT22;2549;52.128;21.068;2023-06-14T15:55:29;23.20;83.00
5061;DHT22;2549;52.128;21.068;2023-06-14T15:57:56;23.20;83.20
5061;DHT22;2549;52.128;21.068;2023-06-14T16:00:23;23.10;83.50
5061;DHT22;2549;52.128;21.068;2023-06-14T16:02:52;23.10;83.90
5061;DHT22;2549;52.128;21.068;2023-06-14T16:05:19;23.10;84.10
5061;DHT22;2549;52.128;21.068;2023-06-14T16:07:46;23.00;84.20